Time;durP1;ratioP1;P1;durP2;ratioP2;P2;SDS_P1;SDS_P2;PMS_P1;PMS_P2;Temp;Humidity;BMP_temperature;BMP_pressure;BME280_temperature;BME280_humidity;BME280_pressure;Samples;Min_cycle;Max_cycle;Signal;HPM_P1;HPM_P2
2023/08/25 00:01:24;;;;;;;6.45;5.40;;;22.10;90.10;;;;;;5057290;28;20042;-70
2023/08/25 00:03:49;;;;;;;6.88;5.47;;;22.10;90.10;;;;;;5062486;28;20036;-70
2023/08/25 00:06:15;;;;;;;6.60;5.18;;;22.00;90.10;;;;;;5067093;28;20170;-70
2023/08/25 00:08:40;;;;;;;7.45;5.45;;;22.00;90.10;;;;;;5060250;28;20035;-70
2023/08/25 00:11:06;;;;;;;8.57;5.97;;;21.90;90.20;;;;;;5054729;28;20033;-70
2023/08/25 00:13:35;;;;;;;8.25;5.75;;;21.90;90.40;;;;;;5068772;28;20418;-70
2023/08/25 00:16:04;;;;;;;7.72;5.90;;;21.90;90.40;;;;;;5068487;28;20029;-70
2023/08/25 00:18:30;;;;;;;5.82;5.22;;;21.80;90.40;;;;;;5065828;28;20386;-70
2023/08/25 00:20:56;;;;;;;6.40;5.75;;;21.80;90.40;;;;;;5070868;28;20017;-69
2023/08/25 00:23:21;;;;;;;6.18;5.28;;;21.80;90.40;;;;;;5055238;28;20029;-69
2023/08/25 00:25:47;;;;;;;5.32;4.72;;;21.90;90.40;;;;;;5072281;28;20074;-69
2023/08/25 00:28:12;;;;;;;5.88;4.70;;;21.90;90.30;;;;;;5065976;28;20100;-69
2023/08/25 00:30:38;;;;;;;8.30;6.57;;;21.90;90.30;;;;;;5069015;28;20025;-69
2023/08/25 00:33:04;;;;;;;5.82;5.25;;;21.90;90.30;;;;;;5059741;28;20035;-70
2023/08/25 00:35:30;;;;;;;7.13;5.10;;;21.90;90.30;;;;;;5058189;28;20426;-70
2023/08/25 00:37:55;;;;;;;6.50;5.80;;;22.00;90.30;;;;;;5063791;28;20025;-71
2023/08/25 00:40:21;;;;;;;5.70;4.57;;;22.00;90.20;;;;;;5061060;28;20013;-71
2023/08/25 00:42:47;;;;;;;7.03;5.22;;;22.00;90.20;;;;;;5063157;28;20059;-71
2023/08/25 00:45:12;;;;;;;6.85;5.30;;;22.00;90.20;;;;;;5063093;28;20113;-71
2023/08/25 00:47:38;;;;;;;7.63;6.50;;;22.00;90.10;;;;;;5057844;28;20013;-70
2023/08/25 00:50:08;;;;;;;8.55;5.25;;;22.00;90.20;;;;;;5065569;28;20115;-71
2023/08/25 00:52:34;;;;;;;8.45;6.50;;;22.00;90.20;;;;;;5062198;28;20145;-71
2023/08/25 00:55:00;;;;;;;8.57;6.63;;;21.90;90.20;;;;;;5065973;28;20024;-71
2023/08/25 00:57:26;;;;;;;7.63;5.70;;;21.90;90.30;;;;;;5062780;28;20087;-70
2023/08/25 00:59:51;;;;;;;6.53;5.22;;;21.80;90.40;;;;;;5067297;28;20020;-71
2023/08/25 01:02:19;;;;;;;7.38;5.38;;;21.80;90.40;;;;;;5061670;28;20017;-70
2023/08/25 01:04:44;;;;;;;7.53;5.75;;;21.80;90.40;;;;;;5058939;28;20078;-70
2023/08/25 01:07:10;;;;;;;6.47;5.32;;;21.80;90.40;;;;;;5066193;28;20021;-71
2023/08/25 01:09:35;;;;;;;6.43;5.55;;;21.80;90.30;;;;;;5062555;28;20024;-71
2023/08/25 01:12:08;;;;;;;8.23;6.05;;;21.80;90.20;;;;;;5064880;28;20441;-71
2023/08/25 01:14:42;;;;;;;8.50;7.13;;;21.80;90.20;;;;;;5059626;28;20597;-72
2023/08/25 01:17:20;;;;;;;7.15;6.05;;;21.70;90.30;;;;;;5056251;28;20028;-72
2023/08/25 01:20:06;;;;;;;7.00;6.15;;;21.60;90.40;;;;;;5071019;28;20033;-72
2023/08/25 01:23:01;;;;;;;7.20;6.50;;;21.60;90.50;;;;;;5062961;28;20017;-71
2023/08/25 01:25:28;;;;;;;10.82;8.27;;;21.50;90.60;;;;;;5070984;28;20063;-71
2023/08/25 01:28:03;;;;;;;8.80;7.18;;;21.40;90.80;;;;;;5063834;28;20131;-71
2023/08/25 01:30:30;;;;;;;8.07;7.18;;;21.40;91.00;;;;;;5064346;28;20029;-71
2023/08/25 01:32:57;;;;;;;8.30;7.43;;;21.40;91.10;;;;;;5063693;28;20043;-71
2023/08/25 01:36:00;;;;;;;9.05;7.38;;;21.40;91.40;;;;;;5063570;28;20024;-71
2023/08/25 01:38:40;;;;;;;9.05;8.13;;;21.40;91.20;;;;;;5065045;28;20028;-71
2023/08/25 01:41:30;;;;;;;9.38;8.32;;;21.30;91.40;;;;;;5062411;28;20047;-71
2023/08/25 01:43:59;;;;;;;9.77;8.77;;;21.20;91.90;;;;;;5062322;28;20090;-70
2023/08/25 01:46:26;;;;;;;9.98;7.78;;;21.20;91.70;;;;;;5065136;28;20451;-71
2023/08/25 01:48:56;;;;;;;7.88;7.07;;;21.20;91.70;;;;;;5063525;28;20047;-71
2023/08/25 01:51:21;;;;;;;9.05;7.22;;;21.30;91.90;;;;;;5067698;28;20394;-70
2023/08/25 01:53:53;;;;;;;7.32;6.55;;;21.40;91.50;;;;;;5065376;28;20033;-71
2023/08/25 01:56:19;;;;;;;8.23;7.43;;;21.50;91.40;;;;;;5065063;28;20095;-71
2023/08/25 01:58:45;;;;;;;8.48;7.57;;;21.60;91.40;;;;;;5057518;28;20017;-71
2023/08/25 02:01:10;;;;;;;8.52;7.72;;;21.60;91.30;;;;;;5069339;28;20025;-71
2023/08/25 02:03:36;;;;;;;10.30;8.07;;;21.70;91.30;;;;;;5065519;28;20107;-71
2023/08/25 02:06:02;;;;;;;8.85;7.88;;;21.70;91.20;;;;;;5061903;28;20048;-71
2023/08/25 02:08:27;;;;;;;10.48;7.80;;;21.70;91.20;;;;;;5060601;28;20032;-71
2023/08/25 02:10:53;;;;;;;10.20;9.20;;;21.70;91.10;;;;;;5061481;28;20036;-70
2023/08/25 02:13:19;;;;;;;11.10;9.40;;;21.70;91.10;;;;;;5067000;28;20029;-69
2023/08/25 02:15:46;;;;;;;12.60;11.27;;;21.70;91.20;;;;;;5067927;28;20104;-70
2023/08/25 02:18:12;;;;;;;11.35;10.15;;;21.60;91.30;;;;;;5068629;28;20024;-70
2023/08/25 02:20:41;;;;;;;13.65;10.98;;;21.60;91.50;;;;;;5063029;28;20494;-70
2023/08/25 02:23:07;;;;;;;13.52;12.23;;;21.60;91.60;;;;;;5063933;28;20047;-70
2023/08/25 02:25:33;;;;;;;11.95;10.80;;;21.50;91.70;;;;;;5063943;28;20522;-70
2023/08/25 02:27:59;;;;;;;11.93;10.45;;;21.40;91.80;;;;;;5060028;28;20124;-70
2023/08/25 02:30:24;;;;;;;10.27;9.18;;;21.40;92.00;;;;;;5063220;28;20027;-70
2023/08/25 02:32:50;;;;;;;12.25;10.95;;;21.40;92.00;;;;;;5060756;28;20043;-70
2023/08/25 02:35:16;;;;;;;10.02;8.45;;;21.40;92.00;;;;;;5051766;28;20025;-69
2023/08/25 02:38:02;;;;;;;12.20;10.90;;;21.40;91.90;;;;;;5058228;28;20048;-69
2023/08/25 02:40:28;;;;;;;10.68;9.68;;;21.50;91.90;;;;;;5056958;28;20394;-69
2023/08/25 02:42:55;;;;;;;11.50;10.30;;;21.50;91.80;;;;;;5065082;28;20074;-69
2023/08/25 02:45:23;;;;;;;12.35;10.45;;;21.50;91.80;;;;;;5067996;28;20036;-69
2023/08/25 02:47:49;;;;;;;11.35;9.40;;;21.60;91.80;;;;;;5069772;28;20033;-70
2023/08/25 02:50:15;;;;;;;11.23;10.05;;;21.70;91.70;;;;;;5069162;28;20028;-70
2023/08/25 02:52:41;;;;;;;11.70;10.48;;;21.80;91.60;;;;;;5069724;28;20024;-69
2023/08/25 02:55:07;;;;;;;9.35;8.35;;;21.80;91.60;;;;;;5050610;28;20024;-69
2023/08/25 02:57:32;;;;;;;8.73;7.65;;;21.90;91.50;;;;;;5055540;28;20031;-69
2023/08/25 02:59:58;;;;;;;17.85;15.23;;;21.90;91.30;;;;;;5081942;28;20467;-70
2023/08/25 03:02:23;;;;;;;13.68;10.68;;;22.00;91.30;;;;;;5066580;28;20086;-69
2023/08/25 03:04:49;;;;;;;12.52;10.90;;;22.00;91.30;;;;;;5069877;28;20024;-70
2023/08/25 03:07:15;;;;;;;12.32;9.90;;;22.00;91.20;;;;;;5067956;28;20033;-70
2023/08/25 03:09:40;;;;;;;11.70;10.05;;;22.00;91.20;;;;;;5069581;28;21809;-69
2023/08/25 03:12:06;;;;;;;9.88;8.60;;;22.00;91.10;;;;;;5052931;28;20075;-69
2023/08/25 03:14:31;;;;;;;10.55;9.45;;;22.10;91.10;;;;;;5053802;28;20440;-69
2023/08/25 03:16:57;;;;;;;10.98;9.00;;;22.10;91.00;;;;;;5066865;28;20696;-70
2023/08/25 03:19:23;;;;;;;12.48;10.80;;;22.10;91.00;;;;;;5073125;28;20623;-69
2023/08/25 03:21:48;;;;;;;12.07;10.77;;;22.10;91.00;;;;;;5062754;28;20029;-70
2023/08/25 03:24:14;;;;;;;11.23;9.93;;;22.10;91.00;;;;;;5071781;28;20548;-70
2023/08/25 03:26:40;;;;;;;11.82;8.82;;;22.10;90.90;;;;;;5088565;28;20017;-70
2023/08/25 03:29:05;;;;;;;11.32;10.10;;;22.10;90.90;;;;;;5070672;28;20025;-70
2023/08/25 03:31:32;;;;;;;9.45;8.55;;;22.10;90.90;;;;;;5066574;28;20029;-70
2023/08/25 03:33:58;;;;;;;9.25;8.05;;;22.10;90.80;;;;;;5053063;28;20028;-70
2023/08/25 03:36:23;;;;;;;10.25;9.25;;;22.10;90.80;;;;;;5065816;28;20017;-70
2023/08/25 03:38:50;;;;;;;11.63;9.85;;;22.10;90.80;;;;;;5066260;28;20395;-69
2023/08/25 03:41:15;;;;;;;11.75;10.50;;;22.00;90.80;;;;;;5063448;28;20086;-69
2023/08/25 03:43:41;;;;;;;11.95;9.48;;;22.00;90.80;;;;;;5073033;28;20017;-68
2023/08/25 03:46:06;;;;;;;11.70;10.50;;;22.00;90.80;;;;;;5073171;28;20025;-69
2023/08/25 03:48:32;;;;;;;11.05;9.60;;;22.00;90.80;;;;;;5071548;28;20113;-69
2023/08/25 03:50:57;;;;;;;9.70;8.30;;;22.00;90.90;;;;;;5073233;28;20032;-69
2023/08/25 03:53:23;;;;;;;11.18;9.82;;;22.10;90.90;;;;;;5060783;28;20111;-68
2023/08/25 03:55:48;;;;;;;10.43;9.07;;;22.00;90.80;;;;;;5052918;28;20021;-69
2023/08/25 03:58:14;;;;;;;9.77;8.35;;;22.10;90.80;;;;;;5060623;28;20037;-69
2023/08/25 04:00:40;;;;;;;10.23;9.23;;;22.00;90.80;;;;;;5065725;28;20111;-69
2023/08/25 04:03:06;;;;;;;10.02;8.52;;;22.00;90.80;;;;;;5053617;28;20365;-69
2023/08/25 04:05:33;;;;;;;12.07;10.30;;;22.10;90.80;;;;;;5071034;28;20019;-69
2023/08/25 04:07:58;;;;;;;11.30;10.10;;;22.10;90.80;;;;;;5072829;28;20024;-69
2023/08/25 04:10:24;;;;;;;9.98;8.63;;;22.10;90.80;;;;;;5072354;28;20029;-69
2023/08/25 04:12:50;;;;;;;10.05;9.00;;;22.10;91.10;;;;;;5067936;28;20024;-69
2023/08/25 04:15:15;;;;;;;10.68;9.57;;;22.10;90.80;;;;;;5067276;28;20037;-69
2023/08/25 04:17:41;;;;;;;9.43;8.43;;;22.10;90.70;;;;;;5072357;28;20028;-69
2023/08/25 04:20:07;;;;;;;11.27;10.10;;;22.10;90.70;;;;;;5059548;28;20021;-69
2023/08/25 04:22:32;;;;;;;10.73;9.50;;;22.10;90.70;;;;;;5057780;28;20024;-69
2023/08/25 04:24:58;;;;;;;11.35;9.75;;;22.10;90.70;;;;;;5068023;28;20391;-69
2023/08/25 04:27:23;;;;;;;10.52;9.30;;;22.10;90.70;;;;;;5064341;28;20667;-69
2023/08/25 04:29:51;;;;;;;10.77;9.68;;;22.20;90.60;;;;;;5055982;28;20021;-69
2023/08/25 04:32:17;;;;;;;11.40;10.05;;;22.20;90.60;;;;;;5069219;28;20071;-69
2023/08/25 04:34:42;;;;;;;11.73;9.75;;;22.10;90.70;;;;;;5064477;28;20064;-70
2023/08/25 04:37:08;;;;;;;10.50;9.40;;;22.10;90.70;;;;;;5062131;28;20066;-69
2023/08/25 04:39:33;;;;;;;10.30;9.07;;;22.10;90.70;;;;;;5066465;28;20054;-69
2023/08/25 04:42:00;;;;;;;11.85;10.65;;;22.10;90.70;;;;;;5062775;28;20056;-68
2023/08/25 04:44:25;;;;;;;10.07;8.98;;;22.10;90.70;;;;;;5064586;28;20107;-69
2023/08/25 04:46:51;;;;;;;11.60;10.40;;;22.10;90.80;;;;;;5055256;28;20096;-70
2023/08/25 04:49:16;;;;;;;11.75;10.50;;;22.10;90.80;;;;;;5064742;28;20032;-70
2023/08/25 04:51:42;;;;;;;11.65;10.35;;;22.10;90.80;;;;;;5059324;28;20035;-70
2023/08/25 04:54:09;;;;;;;10.45;9.35;;;22.20;90.80;;;;;;5065907;28;20074;-70
2023/08/25 04:56:34;;;;;;;12.00;9.90;;;22.20;90.80;;;;;;5059121;28;20021;-70
2023/08/25 04:59:00;;;;;;;11.88;10.68;;;22.20;90.80;;;;;;5057455;28;20021;-70
2023/08/25 05:01:26;;;;;;;14.05;11.95;;;22.20;90.70;;;;;;5057810;28;21789;-70
2023/08/25 05:03:51;;;;;;;11.27;10.10;;;22.20;90.70;;;;;;5069804;28;20035;-70
2023/08/25 05:06:17;;;;;;;13.48;11.55;;;22.20;90.70;;;;;;5055514;28;20391;-70
2023/08/25 05:08:42;;;;;;;14.32;12.15;;;22.20;90.70;;;;;;5058393;28;20077;-70
2023/08/25 05:11:09;;;;;;;11.52;10.20;;;22.20;90.80;;;;;;5059628;28;20441;-70
2023/08/25 05:13:34;;;;;;;12.65;11.30;;;22.20;90.90;;;;;;5059782;28;20044;-69
2023/08/25 05:16:00;;;;;;;13.48;12.07;;;22.10;91.00;;;;;;5060667;28;20391;-70
2023/08/25 05:18:26;;;;;;;11.70;9.73;;;22.10;91.00;;;;;;5062898;28;20471;-70
2023/08/25 05:21:00;;;;;;;12.25;11.05;;;22.10;91.10;;;;;;5061623;28;20071;-70
2023/08/25 05:23:26;;;;;;;12.38;10.65;;;22.10;91.10;;;;;;5059380;28;20020;-70
2023/08/25 05:25:52;;;;;;;14.77;11.70;;;22.10;91.00;;;;;;5062210;28;20029;-70
2023/08/25 05:28:18;;;;;;;12.70;11.32;;;22.10;91.00;;;;;;5069998;28;20027;-69
2023/08/25 05:30:48;;;;;;;12.07;10.77;;;22.10;91.10;;;;;;5062274;28;20047;-70
2023/08/25 05:33:14;;;;;;;13.98;12.45;;;22.10;91.10;;;;;;5061593;28;20526;-70
2023/08/25 05:35:40;;;;;;;13.48;11.10;;;22.10;91.20;;;;;;5059367;28;20028;-70
2023/08/25 05:38:05;;;;;;;12.90;11.23;;;22.10;91.10;;;;;;5062128;28;20020;-70
2023/08/25 05:40:31;;;;;;;15.43;12.80;;;22.10;91.20;;;;;;5054400;28;20480;-70
2023/08/25 05:42:56;;;;;;;15.75;13.85;;;22.10;91.20;;;;;;5063772;28;20024;-70
2023/08/25 05:45:22;;;;;;;16.73;13.30;;;22.10;91.30;;;;;;5068723;28;20495;-70
2023/08/25 05:47:48;;;;;;;13.85;12.02;;;22.20;91.30;;;;;;5064200;28;20036;-70
2023/08/25 05:50:13;;;;;;;15.73;14.13;;;22.30;91.20;;;;;;5070530;28;20024;-70
2023/08/25 05:52:44;;;;;;;15.13;13.27;;;22.20;91.20;;;;;;5049956;28;20091;-70
2023/08/25 05:55:13;;;;;;;16.67;14.30;;;22.30;91.20;;;;;;5066936;28;20396;-69
2023/08/25 05:57:39;;;;;;;15.18;13.02;;;22.30;91.30;;;;;;5068433;28;20016;-69
2023/08/25 06:00:06;;;;;;;17.02;14.55;;;22.30;91.20;;;;;;5063933;28;20017;-70
2023/08/25 06:02:32;;;;;;;17.60;15.23;;;22.30;91.30;;;;;;5063921;28;20020;-70
2023/08/25 06:04:58;;;;;;;15.48;13.57;;;22.30;91.50;;;;;;5067748;28;20091;-69
2023/08/25 06:07:24;;;;;;;14.60;12.32;;;22.30;91.50;;;;;;5062767;28;20027;-70
2023/08/25 06:09:49;;;;;;;16.98;15.07;;;22.20;91.60;;;;;;5065683;28;20036;-69
2023/08/25 06:12:15;;;;;;;15.18;13.57;;;22.20;91.70;;;;;;5067703;28;20120;-70
2023/08/25 06:14:41;;;;;;;14.45;12.82;;;22.20;91.80;;;;;;5068134;28;20036;-69
2023/08/25 06:17:06;;;;;;;19.00;16.27;;;22.20;91.80;;;;;;5061440;28;20480;-70
2023/08/25 06:19:33;;;;;;;18.55;16.15;;;22.20;91.80;;;;;;5062817;28;20470;-70
2023/08/25 06:21:58;;;;;;;20.13;16.67;;;22.20;91.80;;;;;;5062175;28;20032;-70
2023/08/25 06:24:27;;;;;;;17.90;15.70;;;22.20;91.90;;;;;;5049913;28;20396;-70
2023/08/25 06:26:53;;;;;;;21.25;17.95;;;22.20;91.90;;;;;;5058217;28;20047;-70
2023/08/25 06:29:18;;;;;;;21.80;17.98;;;22.20;91.90;;;;;;5061116;28;20037;-70
2023/08/25 06:31:44;;;;;;;19.27;15.93;;;22.10;92.00;;;;;;5056278;28;20028;-70
2023/08/25 06:34:10;;;;;;;18.08;15.55;;;22.10;92.00;;;;;;5064787;28;20039;-69
2023/08/25 06:36:36;;;;;;;22.05;17.98;;;22.20;92.00;;;;;;5059527;28;20053;-69
2023/08/25 06:39:01;;;;;;;20.48;18.30;;;22.20;92.00;;;;;;5059412;28;20510;-69
2023/08/25 06:41:27;;;;;;;20.88;17.30;;;22.10;92.10;;;;;;5068624;28;20100;-69
2023/08/25 06:43:53;;;;;;;17.65;15.75;;;22.10;92.10;;;;;;5061907;28;20029;-69
2023/08/25 06:46:19;;;;;;;19.58;16.50;;;22.10;92.50;;;;;;5064428;28;20025;-69
2023/08/25 06:48:45;;;;;;;16.90;14.43;;;22.10;92.20;;;;;;5053267;28;20502;-69
2023/08/25 06:51:11;;;;;;;16.05;14.05;;;22.10;92.20;;;;;;5059909;28;20382;-70
2023/08/25 06:53:36;;;;;;;18.98;16.35;;;22.20;92.10;;;;;;5061061;28;20029;-70
2023/08/25 06:56:02;;;;;;;15.65;13.68;;;22.10;92.20;;;;;;5056881;28;20032;-71
2023/08/25 06:58:28;;;;;;;19.98;16.52;;;22.10;92.20;;;;;;5061276;28;20016;-70
2023/08/25 07:00:54;;;;;;;20.42;15.85;;;22.10;92.40;;;;;;5059610;28;20483;-70
2023/08/25 07:03:20;;;;;;;22.50;17.55;;;22.00;92.50;;;;;;5065339;28;20028;-70
2023/08/25 07:05:46;;;;;;;18.02;15.20;;;22.00;92.60;;;;;;5061176;28;20021;-70
2023/08/25 07:08:12;;;;;;;14.90;12.38;;;22.00;92.60;;;;;;5065361;28;20020;-70
2023/08/25 07:10:37;;;;;;;20.10;16.45;;;22.10;92.60;;;;;;5059077;28;20044;-70
2023/08/25 07:13:04;;;;;;;14.88;12.90;;;22.10;92.50;;;;;;5057751;28;20032;-69
2023/08/25 07:15:30;;;;;;;16.38;12.48;;;22.10;92.40;;;;;;5064638;28;20025;-70
2023/08/25 07:17:55;;;;;;;20.90;16.15;;;22.00;92.50;;;;;;5057755;28;20028;-70
2023/08/25 07:20:21;;;;;;;19.10;17.00;;;21.90;92.70;;;;;;5060704;28;20463;-69
2023/08/25 07:22:46;;;;;;;17.65;14.60;;;21.90;92.70;;;;;;5064324;28;20036;-69
2023/08/25 07:25:13;;;;;;;18.23;14.88;;;21.90;92.80;;;;;;5067145;28;20107;-68
2023/08/25 07:27:38;;;;;;;15.48;13.52;;;21.90;92.90;;;;;;5059718;28;20391;-69
2023/08/25 07:30:06;;;;;;;20.45;16.45;;;21.90;92.80;;;;;;5066824;28;20024;-69
2023/08/25 07:32:32;;;;;;;14.73;12.70;;;21.90;92.80;;;;;;5056400;28;20035;-69
2023/08/25 07:34:57;;;;;;;19.20;15.38;;;21.80;92.90;;;;;;5061149;28;20028;-69
2023/08/25 07:37:23;;;;;;;17.92;15.02;;;21.80;93.10;;;;;;5056093;28;20078;-69
2023/08/25 07:39:53;;;;;;;21.45;17.27;;;21.80;93.20;;;;;;5052645;28;20021;-70
2023/08/25 07:42:21;;;;;;;18.58;14.70;;;21.80;93.30;;;;;;5058708;28;20032;-70
2023/08/25 07:44:47;;;;;;;15.80;13.50;;;21.90;93.30;;;;;;5065037;28;20021;-69
2023/08/25 07:47:13;;;;;;;20.77;16.70;;;21.90;93.20;;;;;;5053208;28;20063;-69
2023/08/25 07:49:38;;;;;;;17.23;15.38;;;21.90;93.30;;;;;;5053390;28;20028;-68
2023/08/25 07:52:04;;;;;;;16.33;13.13;;;21.80;93.30;;;;;;5058774;28;20116;-69
2023/08/25 07:54:29;;;;;;;16.70;13.30;;;21.90;93.30;;;;;;5055364;28;20026;-69
2023/08/25 07:56:55;;;;;;;17.50;14.98;;;21.90;93.30;;;;;;5054830;28;20103;-69
2023/08/25 07:59:22;;;;;;;15.48;13.45;;;22.00;93.20;;;;;;5066162;28;20035;-68
2023/08/25 08:01:48;;;;;;;22.90;16.95;;;22.00;93.00;;;;;;5061943;28;20457;-69
2023/08/25 08:04:13;;;;;;;18.73;16.40;;;22.00;93.00;;;;;;5061347;28;20111;-69
2023/08/25 08:06:40;;;;;;;18.15;16.20;;;22.00;93.10;;;;;;5060938;28;20144;-71
2023/08/25 08:09:06;;;;;;;22.23;18.40;;;22.00;93.10;;;;;;5066252;28;20379;-70
2023/08/25 08:11:36;;;;;;;21.05;17.70;;;21.90;93.10;;;;;;5065999;28;20487;-70
2023/08/25 08:14:02;;;;;;;17.30;14.65;;;21.90;93.30;;;;;;5063903;28;20863;-70
2023/08/25 08:16:29;;;;;;;22.65;19.65;;;21.90;93.30;;;;;;5060587;28;20142;-70
2023/08/25 08:18:54;;;;;;;18.80;15.60;;;21.80;93.50;;;;;;5061755;28;20025;-70
2023/08/25 08:21:21;;;;;;;20.40;18.00;;;21.80;93.60;;;;;;5063457;28;20036;-70
2023/08/25 08:23:47;;;;;;;16.23;13.98;;;21.80;93.60;;;;;;5066502;28;20108;-70
2023/08/25 08:26:13;;;;;;;16.95;14.10;;;21.70;93.70;;;;;;5058655;28;20104;-70
2023/08/25 08:28:38;;;;;;;14.73;12.18;;;21.70;93.80;;;;;;5055942;28;20032;-70
2023/08/25 08:31:05;;;;;;;21.35;14.90;;;21.80;93.80;;;;;;5059326;28;20110;-71
2023/08/25 08:33:32;;;;;;;18.17;14.73;;;21.80;93.70;;;;;;5063562;28;20032;-71
2023/08/25 08:35:58;;;;;;;16.98;13.85;;;21.80;93.60;;;;;;5057079;28;20403;-71
2023/08/25 08:38:24;;;;;;;20.05;16.15;;;21.90;93.60;;;;;;5064250;28;20410;-70
2023/08/25 08:40:50;;;;;;;17.88;15.77;;;21.80;93.60;;;;;;5063644;28;20035;-70
2023/08/25 08:43:17;;;;;;;16.27;14.55;;;21.80;93.50;;;;;;5058571;28;20023;-70
2023/08/25 08:45:44;;;;;;;17.55;15.35;;;21.90;93.60;;;;;;5057122;28;20486;-70
2023/08/25 08:48:12;;;;;;;14.93;13.32;;;21.90;93.60;;;;;;5059556;28;21211;-70
2023/08/25 08:50:38;;;;;;;15.90;14.20;;;21.90;93.60;;;;;;5063963;28;20036;-71
2023/08/25 08:53:05;;;;;;;14.43;12.77;;;21.90;93.70;;;;;;5063941;28;20089;-71
2023/08/25 08:55:32;;;;;;;17.30;15.13;;;21.90;93.70;;;;;;5062803;28;20025;-71
2023/08/25 08:57:58;;;;;;;14.15;12.70;;;21.90;94.00;;;;;;5063824;28;20029;-70
2023/08/25 09:00:25;;;;;;;14.00;12.50;;;21.80;94.10;;;;;;5063742;28;20036;-71
2023/08/25 09:02:55;;;;;;;18.67;16.77;;;21.80;94.10;;;;;;5060417;28;20024;-71
2023/08/25 09:05:27;;;;;;;19.90;17.77;;;21.80;94.20;;;;;;5064660;28;20511;-71
2023/08/25 09:07:59;;;;;;;18.73;16.70;;;21.60;94.40;;;;;;5063490;28;20040;-71
2023/08/25 09:10:25;;;;;;;17.73;15.38;;;21.50;94.60;;;;;;5060621;28;20029;-71
2023/08/25 09:12:51;;;;;;;18.27;16.38;;;21.40;94.70;;;;;;5065873;28;20025;-70
2023/08/25 09:15:26;;;;;;;17.90;16.00;;;21.30;94.70;;;;;;5058603;28;20029;-70
2023/08/25 09:18:06;;;;;;;15.95;14.18;;;21.30;94.80;;;;;;5065846;28;20025;-70
2023/08/25 09:20:33;;;;;;;14.98;13.18;;;21.40;94.70;;;;;;5063767;28;20035;-70
2023/08/25 09:23:00;;;;;;;15.27;13.02;;;21.40;94.60;;;;;;5060614;28;20028;-70
2023/08/25 09:25:27;;;;;;;14.73;13.15;;;21.40;94.40;;;;;;5060496;28;20029;-70
2023/08/25 09:27:59;;;;;;;14.38;12.48;;;21.40;94.30;;;;;;5062388;28;20032;-70
2023/08/25 09:30:36;;;;;;;15.27;13.23;;;21.40;94.40;;;;;;5063778;28;20035;-70
2023/08/25 09:33:10;;;;;;;16.02;14.30;;;21.50;94.30;;;;;;5063702;28;20033;-71
2023/08/25 09:35:36;;;;;;;16.35;13.35;;;21.50;94.20;;;;;;5063609;28;20028;-71
2023/08/25 09:38:03;;;;;;;15.05;13.45;;;21.40;94.10;;;;;;5063305;28;20023;-71
2023/08/25 09:40:30;;;;;;;12.32;11.02;;;21.50;94.30;;;;;;5061517;28;20059;-71
2023/08/25 09:42:57;;;;;;;11.15;9.82;;;21.40;94.00;;;;;;5063787;28;20069;-71
2023/08/25 09:45:27;;;;;;;14.93;13.43;;;21.40;94.00;;;;;;5061430;28;20174;-71
2023/08/25 09:47:53;;;;;;;9.98;8.98;;;21.40;93.90;;;;;;5059512;28;20021;-71
2023/08/25 09:50:19;;;;;;;14.75;13.18;;;21.30;94.00;;;;;;5058840;28;20028;-71
2023/08/25 09:52:47;;;;;;;10.93;9.25;;;21.30;94.00;;;;;;5065202;28;20515;-71
2023/08/25 09:55:14;;;;;;;10.18;9.00;;;21.30;94.10;;;;;;5063353;28;20077;-71
2023/08/25 09:57:45;;;;;;;12.52;8.90;;;21.30;94.10;;;;;;5060406;28;20078;-72
2023/08/25 10:00:11;;;;;;;9.32;7.85;;;21.30;94.10;;;;;;5060330;28;20119;-71
2023/08/25 10:02:37;;;;;;;8.52;7.68;;;21.30;94.00;;;;;;5058816;28;20402;-72
2023/08/25 10:05:04;;;;;;;8.25;7.43;;;21.40;93.90;;;;;;5056996;28;20032;-71
2023/08/25 10:07:31;;;;;;;9.10;6.72;;;21.40;93.90;;;;;;5058750;28;20607;-71
2023/08/25 10:09:57;;;;;;;6.28;5.68;;;21.40;93.80;;;;;;5059977;28;20033;-71
2023/08/25 10:12:25;;;;;;;7.20;6.40;;;21.50;93.70;;;;;;5061446;28;20085;-72
2023/08/25 10:14:56;;;;;;;6.20;5.60;;;21.60;93.70;;;;;;5072015;28;20028;-71
2023/08/25 10:17:24;;;;;;;;;;;21.60;93.60;;;;;;5057790;28;20737;-70
2023/08/25 10:19:54;;;;;;;6.70;5.70;;;21.60;93.40;;;;;;5061927;28;19912;-71
2023/08/25 10:22:21;;;;;;;8.38;7.13;;;21.60;93.50;;;;;;5059305;28;20017;-72
2023/08/25 10:24:47;;;;;;;8.90;8.00;;;21.50;93.50;;;;;;5055364;28;20089;-72
2023/08/25 10:27:13;;;;;;;6.43;5.72;;;21.40;93.50;;;;;;5056722;28;20043;-71
2023/08/25 10:29:39;;;;;;;6.75;5.88;;;21.40;93.60;;;;;;5055241;28;20423;-72
2023/08/25 10:32:05;;;;;;;7.82;7.03;;;21.50;93.60;;;;;;5059643;28;20028;-71
2023/08/25 10:34:42;;;;;;;7.05;5.88;;;21.60;93.50;;;;;;5060572;28;20024;-71
2023/08/25 10:37:10;;;;;;;8.00;6.97;;;21.70;93.40;;;;;;5056467;28;20463;-72
2023/08/25 10:39:49;;;;;;;7.78;6.63;;;21.90;93.20;;;;;;5058773;28;20020;-71
2023/08/25 10:42:30;;;;;;;5.82;4.78;;;22.00;93.10;;;;;;5059855;28;20035;-71
2023/08/25 10:45:00;;;;;;;6.05;5.32;;;22.10;92.90;;;;;;5059648;28;20029;-71
2023/08/25 10:47:27;;;;;;;6.07;5.47;;;22.30;92.70;;;;;;5055152;28;20036;-71
2023/08/25 10:49:59;;;;;;;5.82;5.15;;;22.50;92.40;;;;;;5058461;28;20491;-72
2023/08/25 10:52:25;;;;;;;5.72;5.10;;;22.60;92.20;;;;;;5055254;28;20569;-72
2023/08/25 10:54:53;;;;;;;5.95;5.35;;;22.60;92.00;;;;;;5063686;28;20029;-71
2023/08/25 10:57:27;;;;;;;5.32;4.82;;;22.70;91.80;;;;;;5060348;28;20252;-72
2023/08/25 11:00:17;;;;;;;5.50;5.00;;;22.80;91.70;;;;;;5054750;28;20536;-72
2023/08/25 11:02:42;;;;;;;6.15;5.00;;;22.90;91.50;;;;;;5050003;28;20106;-71
2023/08/25 11:05:28;;;;;;;5.30;4.80;;;23.00;91.30;;;;;;5060657;28;20441;-71
2023/08/25 11:08:03;;;;;;;4.82;4.38;;;23.20;91.20;;;;;;5062273;28;20035;-71
2023/08/25 11:10:35;;;;;;;4.53;3.90;;;23.30;91.10;;;;;;5052991;28;20033;-71
2023/08/25 11:13:07;;;;;;;5.28;4.80;;;23.40;91.10;;;;;;5050718;28;20028;-70
2023/08/25 11:15:37;;;;;;;4.22;3.60;;;23.20;90.80;;;;;;5058828;28;20029;-71
2023/08/25 11:18:02;;;;;;;5.13;3.90;;;23.20;90.70;;;;;;5057256;28;20063;-71
2023/08/25 11:20:29;;;;;;;4.82;4.32;;;23.10;90.80;;;;;;5059247;28;20044;-70
2023/08/25 11:22:59;;;;;;;6.00;4.35;;;23.00;90.70;;;;;;5057064;28;20021;-70
2023/08/25 11:25:26;;;;;;;4.00;3.60;;;22.90;90.80;;;;;;5062372;28;20359;-70
2023/08/25 11:27:52;;;;;;;4.90;4.07;;;22.80;91.00;;;;;;5058998;28;20503;-71
2023/08/25 11:30:19;;;;;;;4.22;3.75;;;22.80;91.10;;;;;;5060259;28;20025;-71
2023/08/25 11:32:49;;;;;;;6.90;6.20;;;22.70;91.20;;;;;;5056776;28;20598;-70
2023/08/25 11:35:14;;;;;;;6.32;5.10;;;22.60;91.20;;;;;;5066520;28;20039;-70
2023/08/25 11:37:41;;;;;;;7.57;6.78;;;22.60;91.40;;;;;;5060799;28;20037;-70
2023/08/25 11:40:12;;;;;;;7.10;6.40;;;22.60;91.50;;;;;;5064944;28;20503;-70
2023/08/25 11:42:42;;;;;;;7.18;6.47;;;22.50;91.50;;;;;;5063707;28;20482;-70
2023/08/25 11:45:08;;;;;;;6.78;6.07;;;22.50;91.50;;;;;;5061860;28;20032;-70
2023/08/25 11:47:34;;;;;;;8.27;7.47;;;22.40;91.60;;;;;;5063705;28;20036;-70
2023/08/25 11:50:04;;;;;;;8.65;7.75;;;22.40;91.70;;;;;;5060578;28;20036;-70
2023/08/25 11:52:34;;;;;;;10.40;9.30;;;22.40;91.80;;;;;;5064410;28;20033;-70
2023/08/25 11:55:00;;;;;;;10.40;9.50;;;22.40;91.80;;;;;;5065612;28;20063;-71
2023/08/25 11:57:36;;;;;;;9.00;8.10;;;22.40;91.70;;;;;;5060484;28;20023;-71
2023/08/25 12:00:07;;;;;;;9.02;8.13;;;22.40;91.80;;;;;;5063072;28;20139;-70
2023/08/25 12:02:34;;;;;;;10.77;9.67;;;22.30;91.80;;;;;;5059710;28;20021;-71
2023/08/25 12:05:02;;;;;;;9.82;8.15;;;22.40;91.70;;;;;;5063267;28;20027;-68
2023/08/25 12:07:30;;;;;;;6.57;5.57;;;22.30;91.80;;;;;;5056092;28;20029;-71
2023/08/25 12:09:57;;;;;;;8.68;7.78;;;22.30;91.80;;;;;;5051468;28;20117;-67
2023/08/25 12:12:23;;;;;;;10.63;8.70;;;22.30;91.80;;;;;;5060651;28;20501;-69
2023/08/25 12:14:53;;;;;;;9.43;7.95;;;22.30;91.90;;;;;;5054731;28;20037;-70
2023/08/25 12:17:27;;;;;;;10.48;9.48;;;22.30;92.00;;;;;;5061755;28;20106;-70
2023/08/25 12:19:53;;;;;;;7.95;7.20;;;22.30;92.00;;;;;;5059594;28;20021;-69
2023/08/25 12:22:18;;;;;;;11.27;10.20;;;22.30;92.00;;;;;;5053341;28;20028;-69
2023/08/25 12:24:45;;;;;;;8.43;7.68;;;22.20;92.00;;;;;;5057251;28;20021;-70
2023/08/25 12:27:10;;;;;;;9.82;8.05;;;22.30;92.00;;;;;;5053915;28;20036;-69
2023/08/25 12:29:36;;;;;;;12.45;11.07;;;22.30;92.00;;;;;;5058968;28;20232;-70
2023/08/25 12:32:05;;;;;;;7.75;7.03;;;22.30;92.00;;;;;;5054280;28;20032;-70
2023/08/25 12:34:31;;;;;;;7.50;6.80;;;22.30;92.10;;;;;;5060909;28;20060;-70
2023/08/25 12:36:57;;;;;;;10.55;9.10;;;22.40;92.10;;;;;;5056725;28;20627;-70